CheckWX is a tool to help pilots better visualize weather data.  It is not intended as a substitute for an official pre-flight weather briefing.

23:49:50 UTC

KGPI TAF
Glacier Park International Airport
Kalispell, Montana, USA
KGPI 142323Z 1500/1524 18010KT P6SM SKC FM150300 VRB02KT P6SM SKC FM151900 20010KT P6SM SKC

Jul-15@
00:00 UTC

Jul-15 @ 00:00 UTC

Jul-15@
03:00 UTC

Jul-15 @ 03:00 UTC

TAF KGPI 142323Z 1500/1524 18010KT P6SM SKC

Expired

Wind
  • 180° at 10 KTS
Cloud Levels
  • Clear skies

Jul-15@
03:00 UTC

Jul-15 @ 03:00 UTC

Jul-15@
19:00 UTC

Jul-15 @ 19:00 UTC

FM150300 VRB02KT P6SM SKC

Expired

Wind
  • Variable at 2 KTS
Cloud Levels
  • Clear skies

Jul-15@
19:00 UTC

Jul-15 @ 19:00 UTC

Jul-16@
00:00 UTC

Jul-16 @ 00:00 UTC

FM151900 20010KT P6SM SKC

From

From Standard forecast or significant change

Wind
  • 200° at 10 KTS
Cloud Levels
  • Clear skies